Time;durP1;ratioP1;P1;durP2;ratioP2;P2;SDS_P1;SDS_P2;PMS_P1;PMS_P2;Temp;Humidity;BMP_temperature;BMP_pressure;BME280_temperature;BME280_humidity;BME280_pressure;Samples;Min_cycle;Max_cycle;Signal;HPM_P1;HPM_P2
2022/08/04 00:00:01;;;;;;;;;1.20;1.20;;;;;29.72;38.83;100666.56;2105367;28;48107;-58
2022/08/04 00:01:07;;;;;;;;;1.00;1.00;;;;;29.72;38.65;100663.81;2104823;28;45835;-59
2022/08/04 00:02:23;;;;;;;;;2.20;2.20;;;;;29.72;38.75;100661.09;2104247;28;47352;-60
2022/08/04 00:03:32;;;;;;;;;2.40;2.40;;;;;29.73;38.64;100662.81;2102287;28;47876;-58
2022/08/04 00:04:54;;;;;;;;;0.20;0.20;;;;;29.72;38.64;100661.94;2105194;27;47569;-63
2022/08/04 00:06:20;;;;;;;;;2.60;2.60;;;;;29.72;38.86;100663.81;2105458;27;48037;-59
2022/08/04 00:07:43;;;;;;;;;2.80;1.80;;;;;29.71;38.82;100662.97;2102624;28;47930;-58
2022/08/04 00:09:00;;;;;;;;;2.00;2.00;;;;;29.71;38.92;100667.59;2105599;27;47544;-58
2022/08/04 00:10:03;;;;;;;;;2.20;2.20;;;;;29.70;38.70;100661.25;2105190;27;47318;-59
2022/08/04 00:11:06;;;;;;;;;1.80;1.80;;;;;29.71;38.76;100664.84;2104741;28;47642;-57
2022/08/04 00:12:11;;;;;;;;;1.40;1.20;;;;;29.71;38.73;100662.13;2105110;28;47500;-59
2022/08/04 00:13:11;;;;;;;;;2.40;2.40;;;;;29.70;38.83;100663.13;2105110;27;47895;-58
2022/08/04 00:14:14;;;;;;;;;3.00;2.00;;;;;29.69;38.79;100665.00;2111745;27;47498;-58
2022/08/04 00:15:17;;;;;;;;;2.80;2.20;;;;;29.70;38.84;100663.13;2108771;27;47762;-59
2022/08/04 00:16:17;;;;;;;;;3.00;3.00;;;;;29.69;38.75;100666.88;2105558;27;47873;-58
2022/08/04 00:17:20;;;;;;;;;3.25;2.25;;;;;29.70;38.68;100668.59;2105243;27;47533;-58
2022/08/04 00:18:26;;;;;;;;;2.60;2.60;;;;;29.68;39.17;100660.56;2105180;27;47703;-59
2022/08/04 00:19:35;;;;;;;;;4.40;2.60;;;;;29.68;38.73;100656.97;2105529;27;47961;-59
2022/08/04 00:20:41;;;;;;;;;3.00;3.00;;;;;29.68;38.81;100654.22;2105399;27;47568;-58
2022/08/04 00:21:47;;;;;;;;;3.20;3.20;;;;;29.67;38.78;100655.25;2105216;27;47514;-59
2022/08/04 00:22:50;;;;;;;;;2.40;2.40;;;;;29.66;38.92;100648.94;2105370;27;47462;-59
2022/08/04 00:23:53;;;;;;;;;5.20;4.00;;;;;29.66;38.88;100653.53;2105404;27;47880;-58
2022/08/04 00:25:00;;;;;;;;;2.20;2.20;;;;;29.64;39.04;100648.22;2104592;28;47710;-60
2022/08/04 00:26:01;;;;;;;;;2.80;2.80;;;;;29.64;38.93;100655.56;2103871;28;47045;-58
2022/08/04 00:27:03;;;;;;;;;3.00;3.00;;;;;29.64;38.75;100650.09;2106407;27;47434;-58
2022/08/04 00:28:03;;;;;;;;;4.00;2.80;;;;;29.63;39.03;100653.84;2112879;27;47573;-58
2022/08/04 00:29:04;;;;;;;;;2.25;2.25;;;;;29.63;39.39;100659.31;2101583;28;47609;-59
2022/08/04 00:30:06;;;;;;;;;2.80;2.00;;;;;29.62;39.17;100655.75;2105318;27;47321;-59
2022/08/04 00:31:09;;;;;;;;;2.40;2.40;;;;;29.59;39.27;100656.88;2089001;28;47673;-59
2022/08/04 00:32:11;;;;;;;;;2.80;2.80;;;;;29.58;38.82;100657.91;2087593;28;47493;-60
2022/08/04 00:33:17;;;;;;;;;3.20;3.20;;;;;29.58;39.02;100660.63;2104441;28;47596;-57
2022/08/04 00:34:18;;;;;;;;;3.00;3.00;;;;;29.57;39.09;100656.19;2104360;28;46740;-60
2022/08/04 00:35:18;;;;;;;;;2.40;2.20;;;;;29.58;39.09;100660.63;2107640;27;45629;-59
2022/08/04 00:36:20;;;;;;;;;2.00;2.00;;;;;29.56;39.34;100659.94;2110133;27;47781;-58
2022/08/04 00:37:21;;;;;;;;;2.60;2.40;;;;;29.56;39.18;100656.34;2105016;27;47639;-59
2022/08/04 00:38:23;;;;;;;;;2.60;2.00;;;;;29.56;39.35;100654.47;2105103;27;47401;-59
2022/08/04 00:39:24;;;;;;;;;3.20;2.80;;;;;29.55;39.12;100655.50;2104934;27;47851;-59
2022/08/04 00:40:52;;;;;;;;;1.60;1.00;;;;;29.54;39.33;100650.19;2104838;27;47378;-59
2022/08/04 00:42:20;;;;;;;;;2.40;2.40;;;;;29.52;39.46;100653.09;2097347;28;47762;-60
2022/08/04 00:43:30;;;;;;;;;3.60;3.20;;;;;29.53;39.36;100653.94;2105171;28;48055;-59
2022/08/04 00:44:45;;;;;;;;;2.00;2.00;;;;;29.52;39.44;100654.97;2102754;28;47424;-59
2022/08/04 00:45:52;;;;;;;;;2.00;1.80;;;;;29.51;39.13;100665.03;2105147;28;47422;-59
2022/08/04 00:47:24;;;;;;;;;1.40;1.40;;;;;29.50;39.45;100660.59;2105280;27;47297;-57
2022/08/04 00:48:37;;;;;;;;;3.00;3.00;;;;;29.49;39.55;100667.06;2104103;28;45765;-59
2022/08/04 00:50:06;;;;;;;;;4.40;4.00;;;;;29.50;39.38;100662.47;2104418;28;47351;-58
2022/08/04 00:51:30;;;;;;;;;3.00;3.00;;;;;29.48;39.51;100662.63;2074421;28;47272;-58
2022/08/04 00:52:45;;;;;;;;;4.60;3.00;;;;;29.47;39.67;100666.34;2076442;28;47712;-58
2022/08/04 00:53:54;;;;;;;;;2.60;2.60;;;;;29.47;39.59;100663.63;2078690;28;48062;-57
2022/08/04 00:55:11;;;;;;;;;2.00;1.40;;;;;29.48;39.61;100664.50;2078959;28;47763;-57
2022/08/04 00:56:36;;;;;;;;;2.00;2.00;;;;;29.47;39.43;100665.47;2079224;28;47741;-58
2022/08/04 00:57:53;;;;;;;;;0.00;0.00;;;;;29.45;39.46;100662.88;2078553;28;47591;-58
2022/08/04 00:59:12;;;;;;;;;2.00;2.00;;;;;29.44;39.61;100654.84;2078529;28;47976;-58
2022/08/04 01:00:14;;;;;;;;;2.40;1.80;;;;;29.44;39.51;100660.31;2078787;28;47415;-59
2022/08/04 01:01:40;;;;;;;;;3.20;2.00;;;;;29.44;39.66;100660.31;2078643;28;47394;-58
2022/08/04 01:02:49;;;;;;;;;2.00;1.40;;;;;29.44;39.74;100654.84;2078868;28;47612;-58
2022/08/04 01:04:09;;;;;;;;;3.40;2.80;;;;;29.44;39.58;100660.31;2070564;28;48039;-58
2022/08/04 01:05:46;;;;;;;;;2.20;2.20;;;;;29.42;39.56;100657.72;2072907;28;47887;-59
2022/08/04 01:07:18;;;;;;;;;1.60;1.40;;;;;29.43;39.92;100658.59;2078868;28;47492;-60
2022/08/04 01:08:49;;;;;;;;;1.60;1.60;;;;;29.42;39.72;100655.00;2079084;28;47945;-59
2022/08/04 01:10:16;;;;;;;;;2.80;1.80;;;;;29.42;39.63;100651.41;2078955;28;47241;-58
2022/08/04 01:11:37;;;;;;;;;2.20;2.00;;;;;29.40;39.82;100654.31;2078996;28;47172;-59
2022/08/04 01:12:48;;;;;;;;;1.00;1.00;;;;;29.39;39.46;100646.25;2072322;28;48131;-58
2022/08/04 01:14:21;;;;;;;;;4.60;2.00;;;;;29.37;39.55;100642.81;2078719;28;47520;-58
2022/08/04 01:15:35;;;;;;;;;1.60;1.60;;;;;29.35;39.66;100650.31;2062672;28;47151;-58
2022/08/04 01:16:47;;;;;;;;;4.00;3.60;;;;;29.34;39.73;100646.72;2064515;28;47661;-59
2022/08/04 01:18:05;;;;;;;;;1.40;1.40;;;;;29.34;40.58;100651.31;2066490;28;47426;-59
2022/08/04 01:19:35;;;;;;;;;2.00;2.00;;;;;29.33;39.91;100658.66;2062394;28;47324;-58
2022/08/04 01:21:00;;;;;;;;;2.40;2.40;;;;;29.35;39.94;100661.22;2054531;28;47443;-57
2022/08/04 01:22:14;;;;;;;;;4.20;3.00;;;;;29.35;40.19;100663.97;2054269;28;47767;-59
2022/08/04 01:23:39;;;;;;;;;0.00;0.00;;;;;29.34;39.81;100656.78;2054328;28;47461;-59
2022/08/04 01:24:48;;;;;;;;;1.60;1.60;;;;;29.33;39.89;100655.94;2054509;28;47676;-59
2022/08/04 01:25:58;;;;;;;;;1.40;1.00;;;;;29.33;40.00;100649.59;2054275;28;47626;-58
2022/08/04 01:27:25;;;;;;;;;2.20;2.20;;;;;29.34;39.93;100651.31;2046372;28;47379;-59
2022/08/04 01:28:35;;;;;;;;;2.20;2.20;;;;;29.34;40.33;100651.31;2043430;28;47400;-59
2022/08/04 01:30:05;;;;;;;;;3.00;3.00;;;;;29.33;39.96;100650.47;2060829;28;47719;-58
2022/08/04 01:31:20;;;;;;;;;3.20;3.00;;;;;29.33;39.85;100647.72;2047816;28;45839;-59
2022/08/04 01:32:33;;;;;;;;;3.20;2.20;;;;;29.32;39.94;100654.22;2046060;28;47561;-59
2022/08/04 01:33:37;;;;;;;;;2.40;2.40;;;;;29.31;40.25;100656.09;2046491;28;47320;-57
2022/08/04 01:34:50;;;;;;;;;1.00;1.00;;;;;29.30;40.25;100653.50;2046112;28;47724;-59
2022/08/04 01:35:54;;;;;;;;;1.20;0.00;;;;;29.29;40.48;100655.38;2046560;28;47503;-58
2022/08/04 01:37:25;;;;;;;;;3.00;3.00;;;;;29.29;40.19;100651.78;2046924;28;47489;-59
2022/08/04 01:38:32;;;;;;;;;2.20;2.20;;;;;29.29;40.13;100651.78;2046259;28;47566;-60
2022/08/04 01:39:49;;;;;;;;;1.40;1.40;;;;;29.26;40.01;100652.97;2046302;28;48002;-58
2022/08/04 01:40:58;;;;;;;;;2.60;1.80;;;;;29.26;40.18;100654.84;2043324;28;47652;-58
2022/08/04 01:42:01;;;;;;;;;2.20;1.60;;;;;29.26;40.30;100647.50;2046400;28;47543;-59
2022/08/04 01:43:03;;;;;;;;;0.60;0.60;;;;;29.26;40.43;100654.84;2046299;28;47634;-58
2022/08/04 01:44:06;;;;;;;;;2.80;2.80;;;;;29.25;40.47;100659.44;2037724;28;47235;-58
2022/08/04 01:45:09;;;;;;;;;1.00;0.00;;;;;29.25;40.49;100659.44;2037665;28;48173;-58
2022/08/04 01:46:13;;;;;;;;;2.00;1.20;;;;;29.24;40.46;100652.28;2037873;28;47716;-58
2022/08/04 01:47:18;;;;;;;;;1.80;1.80;;;;;29.24;40.33;100654.16;2038433;28;47610;-57
2022/08/04 01:48:24;;;;;;;;;1.20;1.20;;;;;29.23;40.55;100653.28;2046132;28;48006;-57
2022/08/04 01:49:28;;;;;;;;;1.60;1.60;;;;;29.22;40.51;100657.03;2045899;28;48091;-58
2022/08/04 01:50:34;;;;;;;;;3.60;3.60;;;;;29.22;40.56;100650.69;2046414;28;47783;-59
2022/08/04 01:51:38;;;;;;;;;2.00;2.00;;;;;29.19;40.91;100653.72;2049986;28;47637;-57
2022/08/04 01:52:42;;;;;;;;;5.00;2.00;;;;;29.19;40.71;100651.84;2057854;28;47386;-59
2022/08/04 01:53:43;;;;;;;;;1.80;1.80;;;;;29.19;41.06;100653.72;2063052;28;47584;-58
2022/08/04 01:54:45;;;;;;;;;4.20;2.00;;;;;29.19;40.66;100649.13;2062529;28;47577;-58
2022/08/04 01:55:48;;;;;;;;;2.00;2.00;;;;;29.18;40.61;100639.22;2062208;28;48029;-58
2022/08/04 01:56:50;;;;;;;;;3.00;3.00;;;;;29.18;40.83;100641.94;2062357;28;47960;-58
2022/08/04 01:57:52;;;;;;;;;1.80;1.80;;;;;29.18;40.86;100635.63;2059376;28;47281;-58
2022/08/04 01:58:56;;;;;;;;;3.80;1.00;;;;;29.16;40.85;100634.91;2069547;28;47473;-59
2022/08/04 01:59:58;;;;;;;;;2.20;2.20;;;;;29.14;40.63;100635.09;2070704;28;47974;-59
2022/08/04 02:01:07;;;;;;;;;2.00;2.00;;;;;29.14;41.01;100631.50;2070449;28;47618;-57
2022/08/04 02:02:07;;;;;;;;;3.80;3.60;;;;;29.12;40.91;100628.91;2070534;28;47291;-58
2022/08/04 02:03:08;;;;;;;;;2.00;2.00;;;;;29.10;40.72;100633.69;2071060;28;47406;-60
2022/08/04 02:04:13;;;;;;;;;1.00;1.00;;;;;29.08;41.25;100630.22;2070440;28;47912;-58
2022/08/04 02:05:16;;;;;;;;;2.40;1.40;;;;;29.08;41.15;100632.94;2070392;28;46697;-60
2022/08/04 02:06:20;;;;;;;;;1.40;1.00;;;;;29.08;41.22;100632.94;2070365;28;47475;-58
2022/08/04 02:07:51;;;;;;;;;2.00;2.00;;;;;29.06;40.98;100637.72;2070485;28;47184;-59
2022/08/04 02:08:59;;;;;;;;;1.80;1.80;;;;;29.06;41.12;100636.84;2094893;28;47715;-56
2022/08/04 02:10:06;;;;;;;;;1.40;1.40;;;;;29.05;41.06;100637.88;2095729;28;47515;-58
2022/08/04 02:11:21;;;;;;;;;2.00;2.00;;;;;29.06;41.06;100634.13;2104986;27;47516;-58
2022/08/04 02:12:32;;;;;;;;;1.40;1.40;;;;;29.07;41.23;100630.38;2104610;27;47489;-58
2022/08/04 02:13:43;;;;;;;;;2.00;1.60;;;;;29.06;41.52;100634.97;2101060;28;48023;-58
2022/08/04 02:14:54;;;;;;;;;1.00;1.00;;;;;29.07;41.01;100630.38;2105988;27;47616;-59
2022/08/04 02:16:20;;;;;;;;;2.00;2.00;;;;;29.07;40.97;100628.50;2099722;28;48089;-58
2022/08/04 02:17:49;;;;;;;;;2.40;2.40;;;;;29.07;41.18;100628.50;2114562;27;47829;-58
2022/08/04 02:19:08;;;;;;;;;2.20;1.80;;;;;29.07;41.13;100630.38;2107967;27;47439;-58
2022/08/04 02:20:21;;;;;;;;;1.80;1.80;;;;;29.05;41.28;100629.69;2101952;28;47915;-59
2022/08/04 02:21:26;;;;;;;;;3.00;2.40;;;;;29.05;41.27;100625.06;2106020;27;47173;-58
2022/08/04 02:22:27;;;;;;;;;1.20;1.20;;;;;29.05;41.31;100626.94;2105964;27;47715;-59
2022/08/04 02:23:37;;;;;;;;;1.80;0.60;;;;;29.05;41.34;100633.28;2105975;28;47540;-58
2022/08/04 02:24:45;;;;;;;;;3.20;2.00;;;;;29.04;41.22;100636.16;2105460;28;47762;-58
2022/08/04 02:25:54;;;;;;;;;2.40;2.40;;;;;29.02;41.39;100634.44;2106128;27;47260;-59
2022/08/04 02:26:56;;;;;;;;;2.00;2.00;;;;;29.01;41.80;100637.34;2106101;27;47591;-57
2022/08/04 02:28:39;;;;;;;;;2.60;2.00;;;;;28.99;41.48;100637.50;2099581;28;47939;-59
2022/08/04 02:29:55;;;;;;;;;1.00;0.00;;;;;28.99;41.43;100632.03;2106144;27;47571;-59
2022/08/04 02:31:07;;;;;;;;;3.20;2.00;;;;;28.98;41.36;100632.19;2106932;27;47705;-58
2022/08/04 02:32:25;;;;;;;;;2.00;2.00;;;;;28.97;41.56;100625.00;2104248;28;47704;-58
2022/08/04 02:33:34;;;;;;;;;2.40;2.40;;;;;28.95;41.65;100616.94;2105243;28;47604;-60
2022/08/04 02:34:37;;;;;;;;;3.00;2.80;;;;;28.93;41.42;100618.97;2105061;28;46177;-56
2022/08/04 02:35:40;;;;;;;;;4.80;3.00;;;;;28.93;41.43;100612.66;2099708;28;47552;-59
2022/08/04 02:36:42;;;;;;;;;2.40;2.40;;;;;28.91;41.50;100610.06;2105745;27;47697;-58
2022/08/04 02:37:47;;;;;;;;;3.00;3.00;;;;;28.90;41.99;100611.09;2106325;27;47820;-58
2022/08/04 02:38:55;;;;;;;;;2.60;2.60;;;;;28.89;41.51;100606.63;2106034;27;47945;-59
2022/08/04 02:39:58;;;;;;;;;2.20;1.20;;;;;28.86;41.74;100604.19;2105724;27;47916;-59
2022/08/04 02:41:00;;;;;;;;;2.00;2.00;;;;;28.85;41.87;100612.53;2105661;27;47489;-59
2022/08/04 02:42:03;;;;;;;;;3.80;2.80;;;;;28.85;41.92;100609.81;2105421;28;47788;-57
2022/08/04 02:43:07;;;;;;;;;1.60;1.60;;;;;28.84;41.49;100613.53;2105413;28;47454;-58
2022/08/04 02:44:09;;;;;;;;;2.00;2.00;;;;;28.82;41.81;100608.22;2105870;27;47621;-56
2022/08/04 02:45:11;;;;;;;;;3.20;3.20;;;;;28.82;41.75;100610.09;2105695;27;47811;-59
2022/08/04 02:46:12;;;;;;;;;3.20;3.00;;;;;28.80;41.63;100610.25;2106044;27;46086;-59
2022/08/04 02:47:13;;;;;;;;;3.80;2.40;;;;;28.79;42.24;100605.81;2105532;27;47273;-59
2022/08/04 02:48:15;;;;;;;;;2.00;2.00;;;;;28.78;42.01;100611.41;2105541;28;47363;-59
2022/08/04 02:49:18;;;;;;;;;3.00;3.00;;;;;28.77;42.25;100610.56;2105426;28;47727;-59
2022/08/04 02:50:19;;;;;;;;;3.00;3.00;;;;;28.77;42.31;100610.56;2105996;27;47493;-59
2022/08/04 02:51:27;;;;;;;;;3.80;2.40;;;;;28.77;42.14;100612.44;2105771;27;47818;-59
2022/08/04 02:52:29;;;;;;;;;3.60;2.60;;;;;28.75;41.80;100617.19;2102868;27;48166;-57
2022/08/04 02:53:31;;;;;;;;;2.40;1.40;;;;;28.74;42.12;100616.34;2101392;28;47841;-57
2022/08/04 02:54:41;;;;;;;;;3.60;2.00;;;;;28.73;42.08;100620.09;2079452;28;48129;-59
2022/08/04 02:55:43;;;;;;;;;3.60;3.60;;;;;28.74;42.06;100616.34;2090958;28;47851;-57
2022/08/04 02:56:45;;;;;;;;;3.60;3.60;;;;;28.75;42.04;100628.97;2105803;27;47569;-58
2022/08/04 02:57:48;;;;;;;;;2.20;1.60;;;;;28.75;42.09;100620.78;2105690;27;47479;-59
2022/08/04 02:58:55;;;;;;;;;4.00;4.00;;;;;28.75;42.40;100625.41;2096065;28;47647;-59
2022/08/04 03:00:12;;;;;;;;;2.00;2.00;;;;;28.75;42.19;100625.41;2096817;28;47493;-59
2022/08/04 03:01:12;;;;;;;;;2.00;2.00;;;;;28.73;42.41;100625.56;2105666;27;46137;-58
2022/08/04 03:02:15;;;;;;;;;3.75;3.75;;;;;28.73;42.29;100629.13;2112742;27;47185;-58
2022/08/04 03:03:37;;;;;;;;;4.40;2.00;;;;;28.73;42.09;100634.59;2112885;27;47655;-59
2022/08/04 03:04:55;;;;;;;;;2.00;2.00;;;;;28.73;42.00;100637.34;2105269;28;47758;-58
2022/08/04 03:06:10;;;;;;;;;3.20;3.20;;;;;28.73;42.02;100633.75;2105283;28;47603;-58
2022/08/04 03:08:05;;;;;;;;;3.60;3.60;;;;;28.72;42.16;100642.94;2092357;28;47720;-58
2022/08/04 03:09:30;;;;;;;;;3.00;2.00;;;;;28.70;42.27;100642.22;2095430;28;48050;-57
2022/08/04 03:10:42;;;;;;;;;3.00;3.00;;;;;28.67;42.36;100639.78;2092366;28;47582;-58
2022/08/04 03:11:48;;;;;;;;;2.00;2.00;;;;;28.66;42.19;100636.22;2096119;28;47581;-58
2022/08/04 03:13:01;;;;;;;;;2.40;2.40;;;;;28.64;42.43;100635.50;2096399;28;47400;-59
2022/08/04 03:14:22;;;;;;;;;2.00;2.00;;;;;28.61;42.26;100633.09;2096029;28;47336;-58
2022/08/04 03:15:44;;;;;;;;;3.60;3.60;;;;;28.59;42.30;100629.66;2088076;28;47732;-59
2022/08/04 03:17:28;;;;;;;;;3.00;2.00;;;;;28.57;42.44;100630.78;2082463;28;47351;-59
2022/08/04 03:19:00;;;;;;;;;2.00;2.00;;;;;28.55;42.57;100622.75;2094002;28;47158;-59
2022/08/04 03:20:12;;;;;;;;;2.40;1.20;;;;;28.54;42.23;100631.09;2090959;28;47600;-58
2022/08/04 03:21:46;;;;;;;;;1.80;1.80;;;;;28.52;42.65;100630.41;2096218;28;47975;-60
2022/08/04 03:23:11;;;;;;;;;4.80;3.00;;;;;28.51;42.37;100631.41;2096199;28;47995;-59
2022/08/04 03:24:42;;;;;;;;;3.00;2.80;;;;;28.50;42.75;100637.88;2096110;28;47230;-58
2022/08/04 03:25:52;;;;;;;;;3.00;3.00;;;;;28.50;42.42;100638.75;2096295;28;47765;-58
2022/08/04 03:27:17;;;;;;;;;4.00;2.60;;;;;28.49;42.76;100634.28;2096472;28;47449;-57
2022/08/04 03:28:41;;;;;;;;;2.60;2.60;;;;;28.50;42.53;100637.88;2093021;28;47828;-58
2022/08/04 03:30:02;;;;;;;;;4.00;3.00;;;;;28.49;42.39;100639.75;2071420;28;47536;-57
2022/08/04 03:31:18;;;;;;;;;3.00;2.40;;;;;28.48;42.64;100640.75;2064722;28;47368;-56
2022/08/04 03:33:04;;;;;;;;;3.20;3.20;;;;;28.48;42.65;100634.44;2064810;28;47650;-58
2022/08/04 03:34:22;;;;;;;;;2.80;2.00;;;;;28.48;42.47;100637.19;2071755;28;45591;-58
2022/08/04 03:35:40;;;;;;;;;2.80;2.20;;;;;28.47;42.87;100627.28;2070826;28;47668;-56
2022/08/04 03:36:55;;;;;;;;;3.80;3.80;;;;;28.46;42.21;100631.88;2063293;28;47607;-59
2022/08/04 03:38:12;;;;;;;;;3.00;3.00;;;;;28.44;42.53;100632.00;2064987;28;47951;-58
2022/08/04 03:39:38;;;;;;;;;4.80;3.20;;;;;28.42;42.33;100624.97;2074542;28;47302;-58
2022/08/04 03:41:14;;;;;;;;;2.00;2.00;;;;;28.40;42.69;100630.59;2071378;28;47838;-59
2022/08/04 03:42:37;;;;;;;;;3.00;3.00;;;;;28.39;42.91;100620.69;2071796;28;48000;-57
2022/08/04 03:43:46;;;;;;;;;3.00;3.00;;;;;28.40;42.50;100621.53;2073342;28;47599;-59
2022/08/04 03:45:00;;;;;;;;;4.00;4.00;;;;;28.40;42.70;100624.28;2079843;28;47941;-58
2022/08/04 03:46:38;;;;;;;;;2.60;1.60;;;;;28.37;42.60;100617.25;2079372;28;47458;-57
2022/08/04 03:48:06;;;;;;;;;2.20;2.20;;;;;28.35;43.00;100623.88;2079332;28;47994;-57
2022/08/04 03:49:44;;;;;;;;;3.00;3.00;;;;;28.33;42.96;100621.28;2079259;28;47352;-58
2022/08/04 03:54:40;;;;;;;;;4.00;4.00;;;;;28.33;42.73;100637.66;2078701;28;47555;-59
2022/08/04 03:55:54;;;;;;;;;2.80;2.80;;;;;28.34;42.84;100635.81;2046858;28;47859;-60
2022/08/04 03:57:04;;;;;;;;;2.20;2.20;;;;;28.33;42.92;100644.97;2046883;28;47878;-56
2022/08/04 03:58:19;;;;;;;;;3.80;3.80;;;;;28.33;42.70;100637.66;2046611;28;47322;-59
2022/08/04 03:59:27;;;;;;;;;2.00;2.00;;;;;28.33;43.08;100628.59;2044657;28;47853;-58
2022/08/04 04:00:56;;;;;;;;;4.00;3.60;;;;;28.32;43.10;100626.88;2046784;28;47567;-59
2022/08/04 04:02:25;;;;;;;;;4.20;3.00;;;;;28.32;42.48;100629.59;2038907;28;47657;-57
2022/08/04 04:03:37;;;;;;;;;3.40;3.40;;;;;28.30;42.63;100628.91;2042650;28;46482;-58
2022/08/04 04:04:56;;;;;;;;;1.60;1.60;;;;;28.30;42.57;100626.16;2040819;28;47758;-59
2022/08/04 04:06:24;;;;;;;;;1.60;1.60;;;;;28.27;42.59;100621.03;2047266;28;47491;-58
2022/08/04 04:07:56;;;;;;;;;2.60;2.60;;;;;28.25;42.94;100623.00;2049898;28;47520;-58
2022/08/04 04:09:39;;;;;;;;;3.00;3.00;;;;;28.22;43.06;100612.41;2060162;28;47568;-59
2022/08/04 04:10:48;;;;;;;;;3.00;2.40;;;;;28.19;42.97;100608.06;2063101;28;48050;-57
2022/08/04 04:12:17;;;;;;;;;2.60;2.60;;;;;28.17;42.83;100603.78;2063120;28;47717;-58
2022/08/04 04:14:01;;;;;;;;;2.00;1.40;;;;;28.13;43.16;100593.19;2054664;28;47339;-59
2022/08/04 04:15:45;;;;;;;;;1.80;1.80;;;;;28.11;43.06;100592.47;2052608;28;47490;-57
2022/08/04 04:16:56;;;;;;;;;2.20;2.20;;;;;28.09;42.92;100593.63;2060582;28;47772;-58
2022/08/04 04:18:22;;;;;;;;;3.80;3.80;;;;;28.10;43.27;100606.25;2062921;28;48170;-58
2022/08/04 04:19:29;;;;;;;;;0.80;0.80;;;;;28.08;43.21;100603.69;2058345;28;47284;-59
2022/08/04 04:20:54;;;;;;;;;1.40;1.40;;;;;28.08;42.89;100605.56;2062816;28;47750;-60
2022/08/04 04:22:16;;;;;;;;;3.60;3.60;;;;;28.09;43.08;100616.31;2062949;28;48324;-59
2022/08/04 04:23:53;;;;;;;;;2.60;2.40;;;;;28.09;43.46;100624.50;2062235;28;47241;-59
2022/08/04 04:25:18;;;;;;;;;3.40;3.00;;;;;28.09;43.56;100631.84;2059266;28;47498;-59
2022/08/04 04:26:36;;;;;;;;;4.00;3.00;;;;;28.09;43.38;100642.75;2062915;28;47738;-59
2022/08/04 04:27:42;;;;;;;;;3.00;1.80;;;;;28.08;43.29;100641.03;2062714;28;47731;-58
2022/08/04 04:28:57;;;;;;;;;1.40;1.40;;;;;28.07;43.29;100636.53;2062955;28;47353;-59
2022/08/04 04:30:22;;;;;;;;;4.60;4.00;;;;;28.08;43.00;100641.88;2062917;28;47487;-60
2022/08/04 04:32:09;;;;;;;;;1.60;1.60;;;;;28.09;43.43;100651.78;2063858;28;47589;-59
2022/08/04 04:33:54;;;;;;;;;2.80;2.80;;;;;28.09;43.08;100659.97;2075718;28;47852;-58
2022/08/04 04:35:04;;;;;;;;;2.00;2.00;;;;;28.10;42.91;100655.38;2083828;28;48307;-60
2022/08/04 04:36:13;;;;;;;;;2.60;2.60;;;;;28.09;43.25;100654.50;2085696;28;47483;-60
2022/08/04 04:37:29;;;;;;;;;2.80;2.80;;;;;28.08;43.41;100663.72;2098273;28;47523;-58
2022/08/04 04:38:47;;;;;;;;;2.40;2.40;;;;;28.07;43.40;100663.81;2104773;28;47601;-58
2022/08/04 04:39:48;;;;;;;;;3.40;3.40;;;;;28.08;43.32;100657.41;2104148;28;47858;-59
2022/08/04 04:41:12;;;;;;;;;4.00;2.00;;;;;28.07;42.83;100640.13;2104407;28;47523;-59
2022/08/04 04:42:45;;;;;;;;;0.80;0.80;;;;;28.05;43.36;100644.88;2095853;28;47431;-58
2022/08/04 04:44:32;;;;;;;;;3.00;2.00;;;;;28.07;43.30;100647.47;2100117;28;47729;-58
2022/08/04 04:46:02;;;;;;;;;3.00;3.00;;;;;28.05;42.79;100652.22;2106157;27;45719;-59
2022/08/04 04:47:17;;;;;;;;;3.00;3.00;;;;;28.03;43.09;100641.44;2109452;27;47680;-59
2022/08/04 04:48:41;;;;;;;;;3.40;2.00;;;;;28.02;42.90;100658.81;2104368;28;47479;-58
2022/08/04 04:49:56;;;;;;;;;3.60;3.60;;;;;28.01;43.18;100658.97;2096368;28;47766;-60
2022/08/04 04:51:05;;;;;;;;;3.60;3.60;;;;;27.99;43.33;100659.13;2103161;28;47726;-58
2022/08/04 04:52:20;;;;;;;;;2.60;2.60;;;;;27.99;43.42;100666.44;2105008;27;47197;-59
2022/08/04 04:53:32;;;;;;;;;1.00;1.00;;;;;27.98;42.90;100678.38;2104927;27;47930;-58
2022/08/04 04:54:54;;;;;;;;;6.20;2.60;;;;;27.97;43.67;100682.97;2104976;28;47842;-59
2022/08/04 04:56:04;;;;;;;;;2.00;2.00;;;;;27.95;43.25;100689.56;2104032;28;47296;-59
2022/08/04 04:57:16;;;;;;;;;2.20;2.20;;;;;27.93;43.42;100697.88;2104362;28;47392;-59
2022/08/04 04:58:19;;;;;;;;;2.80;2.80;;;;;27.90;43.37;100700.91;2098944;27;47753;-58
2022/08/04 04:59:25;;;;;;;;;3.00;2.40;;;;;27.90;43.72;100697.31;2106982;27;46471;-58
2022/08/04 05:00:48;;;;;;;;;2.20;2.20;;;;;27.88;43.40;100692.03;2103568;28;47917;-59
2022/08/04 05:02:11;;;;;;;;;2.20;2.20;;;;;27.87;43.97;100687.56;2105562;27;47489;-59
2022/08/04 05:03:28;;;;;;;;;1.60;1.60;;;;;27.85;44.50;100692.31;2099761;28;47767;-58
2022/08/04 05:05:06;;;;;;;;;2.20;2.20;;;;;27.83;43.77;100700.66;2105307;27;47610;-58
2022/08/04 05:06:36;;;;;;;;;3.60;2.00;;;;;27.80;43.92;100697.31;2097775;28;47571;-56
2022/08/04 05:07:52;;;;;;;;;2.80;2.00;;;;;27.77;44.45;100703.94;2104526;28;47271;-59
2022/08/04 05:09:11;;;;;;;;;3.60;3.00;;;;;27.74;44.79;100701.50;2104625;28;48109;-58
2022/08/04 05:10:58;;;;;;;;;4.20;4.20;;;;;27.73;44.49;100697.06;2104461;28;47835;-58
2022/08/04 05:12:11;;;;;;;;;4.00;2.00;;;;;27.72;44.82;100686.31;2105238;28;47956;-58
2022/08/04 05:13:17;;;;;;;;;4.00;4.00;;;;;27.70;44.76;100688.31;2104938;27;47360;-58
2022/08/04 05:14:30;;;;;;;;;2.00;2.00;;;;;27.70;45.17;100685.59;2104930;27;47787;-58
2022/08/04 05:15:34;;;;;;;;;2.00;2.00;;;;;27.69;44.76;100676.53;2097245;28;46589;-59
2022/08/04 05:16:43;;;;;;;;;3.00;3.00;;;;;27.69;44.98;100672.94;2095481;28;47049;-56
2022/08/04 05:17:50;;;;;;;;;3.40;3.40;;;;;27.68;44.61;100672.06;2100195;28;47688;-58
2022/08/04 05:19:29;;;;;;;;;3.20;3.20;;;;;27.67;44.40;100688.56;2104841;27;47550;-59
2022/08/04 05:20:36;;;;;;;;;1.00;1.00;;;;;27.66;45.14;100686.88;2070538;28;47664;-58
2022/08/04 05:21:48;;;;;;;;;3.00;3.00;;;;;27.65;44.79;100696.06;2070459;28;47474;-58
2022/08/04 05:22:56;;;;;;;;;3.00;2.60;;;;;27.63;44.82;100701.63;2071077;28;47552;-59
2022/08/04 05:24:03;;;;;;;;;3.00;2.80;;;;;27.63;44.68;100698.88;2070878;28;48027;-59
2022/08/04 05:25:20;;;;;;;;;3.40;3.00;;;;;27.62;44.73;100691.72;2071075;28;47369;-59
2022/08/04 05:26:28;;;;;;;;;4.40;4.40;;;;;27.61;44.29;100686.41;2070483;28;47870;-59
2022/08/04 05:27:51;;;;;;;;;3.00;2.40;;;;;27.60;44.86;100680.09;2070746;28;47775;-59
2022/08/04 05:28:55;;;;;;;;;2.60;2.00;;;;;27.59;44.89;100683.84;2064716;28;47682;-58
2022/08/04 05:30:00;;;;;;;;;3.40;2.60;;;;;27.61;44.82;100694.59;2070578;28;49063;-58
2022/08/04 05:31:17;;;;;;;;;4.20;4.20;;;;;27.59;44.63;100692.00;2072608;28;47401;-58
2022/08/04 05:32:25;;;;;;;;;2.60;2.60;;;;;27.58;45.16;100698.47;2062422;28;47511;-59
2022/08/04 05:33:32;;;;;;;;;3.80;3.80;;;;;27.57;45.30;100699.47;2063328;28;47768;-58
2022/08/04 05:34:40;;;;;;;;;3.00;3.00;;;;;27.57;45.72;100710.38;2070339;28;48255;-59
2022/08/04 05:35:44;;;;;;;;;3.00;3.00;;;;;27.58;44.64;100705.78;2070497;28;47898;-59
2022/08/04 05:36:51;;;;;;;;;3.20;3.20;;;;;27.57;44.54;100702.22;2070726;28;47974;-59
2022/08/04 05:37:56;;;;;;;;;4.00;4.00;;;;;27.56;45.27;100700.44;2070574;28;47934;-57
2022/08/04 05:38:59;;;;;;;;;4.60;4.20;;;;;27.55;45.31;100706.91;2070674;28;47149;-59
2022/08/04 05:40:04;;;;;;;;;2.60;2.00;;;;;27.53;44.84;100723.41;2062486;28;47195;-58
2022/08/04 05:41:07;;;;;;;;;4.80;3.40;;;;;27.50;45.29;100720.97;2062864;28;47844;-57
2022/08/04 05:42:11;;;;;;;;;3.40;3.40;;;;;27.50;44.62;100726.44;2070461;28;47442;-59
2022/08/04 05:43:13;;;;;;;;;3.00;3.00;;;;;27.48;45.16;100720.25;2070952;28;48367;-59
2022/08/04 05:44:18;;;;;;;;;4.00;4.00;;;;;27.47;45.45;100724.00;2070633;28;46678;-58
2022/08/04 05:45:21;;;;;;;;;4.00;3.60;;;;;27.46;45.50;100725.00;2071098;28;47098;-59
2022/08/04 05:46:22;;;;;;;;;4.40;4.40;;;;;27.46;44.85;100721.41;2070544;28;47655;-58